createdAt,value
2023-04-18T00:02:09.146Z,12.27
2023-04-18T00:04:42.029Z,12.22
2023-04-18T00:07:15.385Z,12.25
2023-04-18T00:09:47.687Z,12.23
2023-04-18T00:12:20.949Z,12.19
2023-04-18T00:14:53.522Z,12.15
2023-04-18T00:17:27.753Z,12.08
2023-04-18T00:20:02.421Z,12.06
2023-04-18T00:22:34.757Z,12.04
2023-04-18T00:25:07.849Z,12.11
2023-04-18T00:27:40.688Z,12.12
2023-04-18T00:30:14.153Z,12.08
2023-04-18T00:32:46.344Z,12.17
2023-04-18T00:35:20.131Z,12.07
2023-04-18T00:37:52.400Z,12.05
2023-04-18T00:40:24.596Z,12.13
2023-04-18T00:42:56.847Z,12.06
2023-04-18T00:45:29.282Z,11.96
2023-04-18T00:48:02.834Z,11.97
2023-04-18T00:50:35.456Z,12.05
2023-04-18T00:53:07.692Z,12.05
2023-04-18T00:55:41.234Z,12.08
2023-04-18T00:58:13.656Z,12.13
2023-04-18T01:00:46.072Z,12.16
2023-04-18T01:03:19.346Z,12.15
2023-04-18T01:05:51.699Z,12.04
2023-04-18T01:08:24.309Z,12.10
2023-04-18T01:10:56.987Z,12.15
2023-04-18T01:13:29.274Z,12.15
2023-04-18T01:16:01.925Z,12.11
2023-04-18T01:18:35.252Z,12.12
2023-04-18T01:21:08.379Z,12.12
2023-04-18T01:23:41.004Z,12.19
2023-04-18T01:26:13.513Z,12.08
2023-04-18T01:28:45.860Z,12.06
2023-04-18T01:31:18.184Z,12.12
2023-04-18T01:33:50.543Z,12.09
2023-04-18T01:36:22.957Z,12.09
2023-04-18T01:38:55.672Z,12.02
2023-04-18T01:41:29.882Z,12.06
2023-04-18T01:44:02.244Z,12.11
2023-04-18T01:46:34.550Z,12.03
2023-04-18T01:49:10.187Z,11.99
2023-04-18T01:51:43.254Z,11.90
2023-04-18T01:54:15.907Z,11.92
2023-04-18T01:56:48.297Z,11.88
2023-04-18T01:59:20.437Z,11.91
2023-04-18T02:01:52.995Z,11.89
2023-04-18T02:04:25.150Z,11.92
2023-04-18T02:06:57.404Z,11.87
2023-04-18T02:09:29.733Z,11.99
2023-04-18T02:12:03.739Z,12.01
2023-04-18T02:14:37.855Z,12.05
2023-04-18T02:17:10.343Z,12.01
2023-04-18T02:19:43.073Z,11.86
2023-04-18T02:22:15.442Z,11.86
2023-04-18T02:24:47.634Z,11.95
2023-04-18T02:27:20.962Z,11.83
2023-04-18T02:29:53.322Z,11.97
2023-04-18T02:32:25.620Z,11.91
2023-04-18T02:34:57.841Z,11.92
2023-04-18T02:37:29.997Z,11.90
2023-04-18T02:40:02.148Z,11.82
2023-04-18T02:42:36.613Z,11.80
2023-04-18T02:45:11.304Z,11.90
2023-04-18T02:47:54.770Z,11.81
2023-04-18T02:50:29.213Z,11.88
2023-04-18T02:53:01.727Z,11.83
2023-04-18T02:55:43.131Z,11.85
2023-04-18T02:58:15.711Z,11.84
2023-04-18T03:01:26.432Z,11.87
2023-04-18T03:04:03.406Z,11.72
2023-04-18T03:06:49.028Z,11.75
2023-04-18T03:09:21.897Z,11.72
2023-04-18T03:11:56.499Z,11.83
2023-04-18T03:14:30.980Z,11.81
2023-04-18T03:17:04.977Z,11.82
2023-04-18T03:19:42.682Z,11.80
2023-04-18T03:22:17.905Z,11.78
2023-04-18T03:25:00.256Z,11.69
2023-04-18T03:28:04.823Z,11.77
2023-04-18T03:30:38.288Z,11.78
2023-04-18T03:33:11.613Z,11.72
2023-04-18T03:35:44.103Z,11.61
2023-04-18T03:38:16.100Z,11.74
2023-04-18T03:40:49.216Z,11.75
2023-04-18T03:43:27.602Z,11.79
2023-04-18T03:46:00.513Z,11.75
2023-04-18T03:48:35.875Z,11.79
2023-04-18T03:51:10.382Z,11.68
2023-04-18T03:53:43.426Z,11.72
2023-04-18T03:56:15.678Z,11.69
2023-04-18T03:58:54.723Z,11.75
2023-04-18T04:01:27.800Z,11.76
2023-04-18T04:04:01.636Z,11.65
2023-04-18T04:06:34.684Z,11.67
2023-04-18T04:09:06.960Z,11.67
2023-04-18T04:11:39.742Z,11.65
2023-04-18T04:14:13.643Z,11.66
2023-04-18T04:16:49.194Z,11.84
2023-04-18T04:19:22.053Z,11.79
2023-04-18T04:21:59.936Z,11.81
2023-04-18T04:24:33.358Z,11.83
2023-04-18T04:27:06.288Z,11.74
2023-04-18T04:29:39.918Z,11.81
2023-04-18T04:32:13.116Z,11.78
2023-04-18T04:34:46.427Z,11.78
2023-04-18T04:37:19.423Z,11.85
2023-04-18T04:40:13.041Z,11.78
2023-04-18T04:42:54.726Z,11.90
2023-04-18T04:45:33.139Z,11.89
2023-04-18T04:48:06.221Z,11.93
2023-04-18T04:50:43.117Z,11.94
2023-04-18T04:53:17.236Z,11.83
2023-04-18T04:55:50.070Z,11.91
2023-04-18T04:58:23.346Z,11.92
2023-04-18T05:01:08.332Z,11.79
2023-04-18T05:03:41.343Z,11.89
2023-04-18T05:06:14.183Z,11.95
2023-04-18T05:08:46.668Z,11.99
2023-04-18T05:11:19.418Z,11.90
2023-04-18T05:13:51.663Z,11.93
2023-04-18T05:16:24.788Z,11.99
2023-04-18T05:18:57.667Z,12.00
2023-04-18T05:21:31.356Z,12.06
2023-04-18T05:24:03.901Z,12.03
2023-04-18T05:26:36.512Z,11.98
2023-04-18T05:29:09.969Z,11.97
2023-04-18T05:31:42.440Z,12.18
2023-04-18T05:34:14.855Z,12.20
2023-04-18T05:36:47.796Z,12.13
2023-04-18T05:39:20.138Z,12.16
2023-04-18T05:41:52.550Z,12.20
2023-04-18T05:44:25.493Z,12.20
2023-04-18T05:46:58.008Z,12.26
2023-04-18T05:49:30.794Z,12.25
2023-04-18T05:52:03.596Z,12.28
2023-04-18T05:54:36.462Z,12.20
2023-04-18T05:57:09.713Z,12.25
2023-04-18T05:59:41.923Z,12.26
2023-04-18T06:02:14.190Z,12.20
2023-04-18T06:04:46.772Z,12.13
2023-04-18T06:07:19.361Z,12.07
2023-04-18T06:09:51.679Z,12.29
2023-04-18T06:12:23.866Z,12.32
2023-04-18T06:14:55.977Z,12.37
2023-04-18T06:17:28.618Z,12.45
2023-04-18T06:20:01.013Z,12.60
2023-04-18T06:22:33.929Z,12.58
2023-04-18T06:25:10.175Z,12.63
2023-04-18T06:27:42.874Z,12.73
2023-04-18T06:30:16.096Z,12.85
2023-04-18T06:32:48.233Z,12.88
2023-04-18T06:35:20.795Z,13.01
2023-04-18T06:37:53.125Z,13.05
2023-04-18T06:40:25.464Z,13.10
2023-04-18T06:42:57.677Z,13.16
2023-04-18T06:45:30.983Z,13.23
2023-04-18T06:48:05.543Z,13.24
2023-04-18T06:50:37.928Z,13.21
2023-04-18T06:53:10.187Z,13.20
2023-04-18T06:55:42.574Z,13.30
2023-04-18T06:58:16.940Z,13.37
2023-04-18T07:00:52.005Z,13.46
2023-04-18T07:03:24.388Z,13.52
2023-04-18T07:05:56.870Z,13.56
2023-04-18T07:08:29.138Z,13.49
2023-04-18T07:11:01.612Z,13.73
2023-04-18T07:13:33.833Z,13.72
2023-04-18T07:16:06.213Z,13.66
2023-04-18T07:18:38.711Z,13.71
2023-04-18T07:21:11.045Z,13.78
2023-04-18T07:23:43.515Z,13.81
2023-04-18T07:26:16.095Z,13.91
2023-04-18T07:28:48.731Z,13.95
2023-04-18T07:31:20.876Z,14.01
2023-04-18T07:33:53.205Z,13.95
2023-04-18T07:36:25.981Z,14.02
2023-04-18T07:38:58.981Z,13.98
2023-04-18T07:41:31.427Z,14.09
2023-04-18T07:44:04.382Z,14.15
2023-04-18T07:46:37.053Z,14.21
2023-04-18T07:49:09.302Z,14.20
2023-04-18T07:51:41.492Z,14.24
2023-04-18T07:54:13.921Z,14.31
2023-04-18T07:56:46.096Z,14.35
2023-04-18T07:59:18.521Z,14.43
2023-04-18T08:01:50.885Z,14.45
2023-04-18T08:04:23.350Z,14.38
2023-04-18T08:06:58.459Z,14.51
2023-04-18T08:09:30.856Z,14.57
2023-04-18T08:12:03.421Z,14.59
2023-04-18T08:14:35.723Z,14.56
2023-04-18T08:17:08.055Z,14.61
2023-04-18T08:19:40.404Z,14.71
2023-04-18T08:22:13.162Z,14.69
2023-04-18T08:24:57.488Z,14.84
2023-04-18T08:27:36.360Z,14.85
2023-04-18T08:30:10.773Z,14.95
2023-04-18T08:32:43.243Z,15.01
2023-04-18T08:35:15.740Z,15.03
2023-04-18T08:37:47.912Z,14.98
2023-04-18T08:40:20.231Z,15.06
2023-04-18T08:42:56.485Z,15.16
2023-04-18T08:45:29.654Z,15.20
2023-04-18T08:48:03.677Z,15.29
2023-04-18T08:50:36.476Z,15.37
2023-04-18T08:53:08.848Z,15.43
2023-04-18T08:55:42.118Z,15.53
2023-04-18T08:58:22.429Z,15.58
2023-04-18T09:00:56.701Z,15.65
2023-04-18T09:03:41.229Z,15.72
2023-04-18T09:06:19.044Z,15.76
2023-04-18T09:09:00.312Z,15.79
2023-04-18T09:11:34.556Z,15.83
2023-04-18T09:14:07.916Z,15.89
2023-04-18T09:16:48.122Z,15.96
2023-04-18T09:19:21.718Z,15.87
2023-04-18T09:22:01.943Z,15.96
2023-04-18T09:24:34.370Z,16.05
2023-04-18T09:27:15.096Z,16.14
2023-04-18T09:29:49.606Z,16.19
2023-04-18T09:32:29.261Z,16.08
2023-04-18T09:35:05.383Z,16.01
2023-04-18T09:37:37.716Z,16.08
2023-04-18T09:40:19.650Z,15.99
2023-04-18T09:42:54.900Z,15.98
2023-04-18T09:45:28.358Z,15.87
2023-04-18T09:48:00.608Z,15.91
2023-04-18T09:50:33.698Z,15.96
2023-04-18T09:53:06.501Z,15.91
2023-04-18T09:55:42.474Z,15.97
2023-04-18T09:58:15.252Z,16.02
2023-04-18T10:00:48.166Z,16.05
2023-04-18T10:03:22.221Z,16.09
2023-04-18T10:05:57.202Z,16.09
2023-04-18T10:08:30.481Z,16.10
2023-04-18T10:11:03.050Z,16.22
2023-04-18T10:13:40.436Z,16.29
2023-04-18T10:16:13.269Z,16.27
2023-04-18T10:18:46.195Z,16.18
2023-04-18T10:21:18.457Z,16.22
2023-04-18T10:23:51.210Z,16.24
2023-04-18T10:26:43.510Z,16.25
2023-04-18T10:29:15.836Z,16.33
2023-04-18T10:31:49.147Z,16.33
2023-04-18T10:34:22.168Z,16.35
2023-04-18T10:37:07.819Z,16.37
2023-04-18T10:39:57.033Z,16.42
2023-04-18T10:43:02.101Z,16.42
2023-04-18T10:45:36.568Z,16.46
2023-04-18T10:48:26.072Z,16.42
2023-04-18T10:51:19.203Z,16.42
2023-04-18T10:53:57.288Z,16.50
2023-04-18T10:56:29.640Z,16.48
2023-04-18T10:59:04.490Z,16.48
2023-04-18T11:01:38.006Z,16.55
2023-04-18T11:04:15.696Z,16.59
2023-04-18T11:06:55.022Z,16.50
2023-04-18T11:09:27.458Z,16.57
2023-04-18T11:12:10.611Z,16.58
2023-04-18T11:14:47.293Z,16.58
2023-04-18T11:17:21.433Z,16.67
2023-04-18T11:20:00.660Z,16.76
2023-04-18T11:22:33.445Z,16.69
2023-04-18T11:25:10.165Z,16.73
2023-04-18T11:27:45.090Z,16.74
2023-04-18T11:30:16.558Z,16.75
2023-04-18T11:32:49.012Z,16.66
2023-04-18T11:35:21.307Z,16.66
2023-04-18T11:37:55.552Z,16.72
2023-04-18T11:40:28.176Z,16.74
2023-04-18T11:43:04.104Z,16.74
2023-04-18T11:45:36.816Z,16.77
2023-04-18T11:48:09.196Z,16.85
2023-04-18T11:50:41.951Z,16.87
2023-04-18T11:53:13.941Z,16.89
2023-04-18T11:55:57.552Z,16.87
2023-04-18T11:58:34.532Z,16.83
2023-04-18T12:01:20.707Z,16.80
2023-04-18T12:04:06.796Z,16.62
2023-04-18T12:06:53.631Z,16.53
2023-04-18T12:09:27.069Z,16.45
2023-04-18T12:12:03.493Z,16.36
2023-04-18T12:14:38.179Z,16.43
2023-04-18T12:17:10.546Z,16.41
2023-04-18T12:19:48.016Z,16.35
2023-04-18T12:22:37.499Z,16.43
2023-04-18T12:25:27.731Z,16.38
2023-04-18T12:28:02.563Z,16.39
2023-04-18T12:30:37.541Z,16.47
2023-04-18T12:33:10.140Z,16.43
2023-04-18T12:35:42.614Z,16.35
2023-04-18T12:38:15.230Z,16.48
2023-04-18T12:40:48.120Z,16.48
2023-04-18T12:43:21.112Z,16.49
2023-04-18T12:45:53.699Z,16.61
2023-04-18T12:48:26.233Z,16.69
2023-04-18T12:50:58.433Z,16.76
2023-04-18T12:53:30.812Z,16.76
2023-04-18T12:56:03.196Z,16.85
2023-04-18T12:58:35.279Z,16.88
2023-04-18T13:01:08.066Z,16.88
2023-04-18T13:03:41.327Z,16.85
2023-04-18T13:06:13.799Z,16.96
2023-04-18T13:08:47.552Z,17.03
2023-04-18T13:11:20.762Z,17.03
2023-04-18T13:13:52.991Z,17.15
2023-04-18T13:16:25.394Z,17.21
2023-04-18T13:18:57.785Z,17.19
2023-04-18T13:21:29.826Z,17.09
2023-04-18T13:24:02.114Z,17.03
2023-04-18T13:26:36.515Z,17.17
2023-04-18T13:29:09.103Z,17.26
2023-04-18T13:31:41.473Z,17.33
2023-04-18T13:34:14.123Z,17.40
2023-04-18T13:36:46.254Z,17.34
2023-04-18T13:39:19.358Z,17.33
2023-04-18T13:41:52.300Z,17.33
2023-04-18T13:44:25.136Z,17.30
2023-04-18T13:46:57.605Z,17.28
2023-04-18T13:49:30.207Z,17.28
2023-04-18T13:52:02.463Z,17.32
2023-04-18T13:54:34.944Z,17.25
2023-04-18T13:57:11.473Z,17.25
2023-04-18T13:59:43.947Z,17.19
2023-04-18T14:02:16.360Z,17.15
2023-04-18T14:04:49.305Z,17.05
2023-04-18T14:07:21.677Z,17.11
2023-04-18T14:09:54.192Z,17.12
2023-04-18T14:12:27.147Z,17.17
2023-04-18T14:14:59.489Z,17.22
2023-04-18T14:17:32.012Z,17.27
2023-04-18T14:20:05.038Z,17.28
2023-04-18T14:22:37.149Z,17.32
2023-04-18T14:25:11.172Z,17.24
2023-04-18T14:27:43.579Z,17.08
2023-04-18T14:30:17.625Z,16.94
2023-04-18T14:32:49.875Z,16.79
2023-04-18T14:35:22.601Z,16.89
2023-04-18T14:37:55.201Z,16.85
2023-04-18T14:40:29.147Z,16.86
2023-04-18T14:43:02.901Z,16.88
2023-04-18T14:45:35.712Z,16.88
2023-04-18T14:48:10.039Z,16.96
2023-04-18T14:50:42.725Z,16.80
2023-04-18T14:53:15.325Z,16.89
2023-04-18T14:55:48.238Z,16.94
2023-04-18T14:58:20.367Z,16.79
2023-04-18T15:00:53.606Z,16.74
2023-04-18T15:03:26.214Z,16.67
2023-04-18T15:05:58.946Z,16.62
2023-04-18T15:08:32.848Z,16.64
2023-04-18T15:11:08.375Z,16.72
2023-04-18T15:13:41.447Z,16.82
2023-04-18T15:16:14.192Z,16.92
2023-04-18T15:18:46.402Z,16.94
2023-04-18T15:21:18.605Z,17.02
2023-04-18T15:23:51.255Z,17.02
2023-04-18T15:26:24.251Z,16.99
2023-04-18T15:28:56.669Z,17.04
2023-04-18T15:31:28.914Z,16.97
2023-04-18T15:34:01.249Z,16.95
2023-04-18T15:36:33.702Z,16.94
2023-04-18T15:39:06.851Z,17.03
2023-04-18T15:41:42.122Z,17.04
2023-04-18T15:44:14.925Z,16.97
2023-04-18T15:46:47.279Z,16.98
2023-04-18T15:49:19.371Z,16.93
2023-04-18T15:51:52.044Z,16.96
2023-04-18T15:54:24.235Z,17.06
2023-04-18T15:56:58.244Z,17.07
2023-04-18T15:59:30.771Z,16.98
2023-04-18T16:02:03.493Z,17.12
2023-04-18T16:04:37.125Z,17.07
2023-04-18T16:07:09.965Z,17.05
2023-04-18T16:09:42.154Z,17.00
2023-04-18T16:12:14.409Z,17.08
2023-04-18T16:14:46.946Z,17.13
2023-04-18T16:17:19.076Z,17.13
2023-04-18T16:19:51.196Z,17.12
2023-04-18T16:22:23.436Z,17.12
2023-04-18T16:24:55.614Z,17.09
2023-04-18T16:27:28.391Z,17.01
2023-04-18T16:30:01.760Z,16.95
2023-04-18T16:32:34.057Z,16.92
2023-04-18T16:35:07.848Z,16.86
2023-04-18T16:37:41.050Z,16.85
2023-04-18T16:40:14.156Z,16.82
2023-04-18T16:42:47.150Z,16.81
2023-04-18T16:45:19.765Z,16.81
2023-04-18T16:47:52.040Z,16.79
2023-04-18T16:50:24.740Z,16.90
2023-04-18T16:52:57.079Z,16.95
2023-04-18T16:55:29.489Z,16.97
2023-04-18T16:58:01.841Z,16.97
2023-04-18T17:00:35.012Z,16.86
2023-04-18T17:03:10.099Z,16.77
2023-04-18T17:05:42.477Z,16.79
2023-04-18T17:08:14.791Z,16.82
2023-04-18T17:10:47.504Z,16.80
2023-04-18T17:13:19.858Z,16.77
2023-04-18T17:15:52.675Z,16.68
2023-04-18T17:18:24.993Z,16.70
2023-04-18T17:20:57.244Z,16.72
2023-04-18T17:23:30.389Z,16.67
2023-04-18T17:26:04.999Z,16.59
2023-04-18T17:28:37.258Z,16.63
2023-04-18T17:31:09.944Z,16.59
2023-04-18T17:33:43.029Z,16.56
2023-04-18T17:36:15.697Z,16.50
2023-04-18T17:38:50.302Z,16.50
2023-04-18T17:41:23.414Z,16.37
2023-04-18T17:43:58.163Z,16.38
2023-04-18T17:46:30.970Z,16.36
2023-04-18T17:49:04.441Z,16.35
2023-04-18T17:51:37.241Z,16.32
2023-04-18T17:54:11.206Z,16.25
2023-04-18T17:56:43.903Z,16.30
2023-04-18T17:59:16.588Z,16.21
2023-04-18T18:01:49.068Z,16.26
2023-04-18T18:04:24.903Z,16.23
2023-04-18T18:06:59.341Z,16.20
2023-04-18T18:09:31.575Z,16.21
2023-04-18T18:12:04.019Z,16.11
2023-04-18T18:14:36.581Z,15.92
2023-04-18T18:17:09.445Z,15.92
2023-04-18T18:19:42.194Z,15.82
2023-04-18T18:22:14.565Z,15.91
2023-04-18T18:24:47.027Z,15.87
2023-04-18T18:27:20.475Z,15.92
2023-04-18T18:29:52.846Z,15.82
2023-04-18T18:32:26.785Z,15.79
2023-04-18T18:34:59.826Z,15.77
2023-04-18T18:37:32.348Z,15.71
2023-04-18T18:40:07.481Z,15.70
2023-04-18T18:42:39.804Z,15.76
2023-04-18T18:45:13.264Z,15.77
2023-04-18T18:47:46.298Z,15.85
2023-04-18T18:50:18.882Z,15.82
2023-04-18T18:52:51.274Z,15.77
2023-04-18T18:55:24.043Z,15.71
2023-04-18T18:57:56.154Z,15.63
2023-04-18T19:00:28.921Z,15.66
2023-04-18T19:03:01.383Z,15.66
2023-04-18T19:05:34.081Z,15.69
2023-04-18T19:08:06.830Z,15.60
2023-04-18T19:10:40.304Z,15.57
2023-04-18T19:13:13.065Z,15.64
2023-04-18T19:15:45.519Z,15.70
2023-04-18T19:18:19.460Z,15.77
2023-04-18T19:20:53.441Z,15.74
2023-04-18T19:23:28.092Z,15.63
2023-04-18T19:26:00.529Z,15.56
2023-04-18T19:28:32.854Z,15.55
2023-04-18T19:31:05.496Z,15.58
2023-04-18T19:33:37.609Z,15.61
2023-04-18T19:36:10.422Z,15.63
2023-04-18T19:38:42.699Z,15.53
2023-04-18T19:41:14.983Z,15.56
2023-04-18T19:43:47.277Z,15.64
2023-04-18T19:46:19.866Z,15.54
2023-04-18T19:48:52.680Z,15.44
2023-04-18T19:51:25.172Z,15.38
2023-04-18T19:53:57.867Z,15.21
2023-04-18T19:56:30.637Z,15.16
2023-04-18T19:59:06.152Z,15.17
2023-04-18T20:01:38.422Z,15.09
2023-04-18T20:04:11.031Z,14.98
2023-04-18T20:06:43.685Z,15.18
2023-04-18T20:09:16.990Z,15.25
2023-04-18T20:11:49.568Z,15.15
2023-04-18T20:14:22.664Z,15.20
2023-04-18T20:16:56.139Z,15.08
2023-04-18T20:19:29.887Z,15.08
2023-04-18T20:22:02.456Z,14.92
2023-04-18T20:24:35.107Z,14.86
2023-04-18T20:27:07.564Z,14.73
2023-04-18T20:29:39.774Z,14.67
2023-04-18T20:32:14.220Z,14.66
2023-04-18T20:34:46.993Z,14.64
2023-04-18T20:37:20.176Z,14.65
2023-04-18T20:39:52.878Z,14.74
2023-04-18T20:42:25.103Z,14.85
2023-04-18T20:44:58.852Z,14.82
2023-04-18T20:47:31.353Z,14.64
2023-04-18T20:50:03.744Z,14.46
2023-04-18T20:52:36.324Z,14.68
2023-04-18T20:55:09.614Z,14.45
2023-04-18T20:57:42.099Z,14.34
2023-04-18T21:00:15.932Z,14.21
2023-04-18T21:02:48.385Z,14.26
2023-04-18T21:05:20.463Z,14.38
2023-04-18T21:07:53.111Z,14.36
2023-04-18T21:10:25.596Z,14.22
2023-04-18T21:12:57.861Z,14.28
2023-04-18T21:15:29.964Z,14.18
2023-04-18T21:18:02.499Z,14.33
2023-04-18T21:20:36.543Z,14.32
2023-04-18T21:23:08.799Z,14.29
2023-04-18T21:25:41.443Z,14.37
2023-04-18T21:28:15.197Z,14.49
2023-04-18T21:30:47.532Z,14.33
2023-04-18T21:33:20.518Z,14.27
2023-04-18T21:35:53.032Z,14.23
2023-04-18T21:38:25.620Z,14.27
2023-04-18T21:40:57.661Z,14.22
2023-04-18T21:43:29.831Z,14.24
2023-04-18T21:46:02.775Z,14.22
2023-04-18T21:48:35.356Z,14.14
2023-04-18T21:51:08.168Z,14.15
2023-04-18T21:53:41.863Z,14.03
2023-04-18T21:56:14.121Z,14.03
2023-04-18T21:58:46.248Z,14.01
2023-04-18T22:01:18.525Z,13.97
2023-04-18T22:03:51.512Z,14.09
2023-04-18T22:06:24.222Z,14.08
2023-04-18T22:08:56.306Z,14.11
2023-04-18T22:11:29.257Z,14.04
2023-04-18T22:14:02.170Z,14.11
2023-04-18T22:16:34.529Z,14.15
2023-04-18T22:19:07.426Z,14.06
2023-04-18T22:21:39.899Z,13.98
2023-04-18T22:24:12.588Z,13.81
2023-04-18T22:26:44.745Z,13.86
2023-04-18T22:29:16.974Z,13.93
2023-04-18T22:31:49.219Z,13.99
2023-04-18T22:34:21.440Z,13.92
2023-04-18T22:36:53.568Z,13.77
2023-04-18T22:39:25.795Z,13.79
2023-04-18T22:41:58.390Z,13.77
2023-04-18T22:44:30.653Z,13.68
2023-04-18T22:47:03.279Z,13.66
2023-04-18T22:49:36.011Z,13.66
2023-04-18T22:52:09.124Z,13.57
2023-04-18T22:54:42.901Z,13.50
2023-04-18T22:57:15.016Z,13.38
2023-04-18T22:59:47.024Z,13.50
2023-04-18T23:02:19.308Z,13.32
2023-04-18T23:04:51.590Z,13.19
2023-04-18T23:07:23.915Z,13.14
2023-04-18T23:09:56.302Z,13.27
2023-04-18T23:12:28.630Z,13.43
2023-04-18T23:15:01.054Z,13.42
2023-04-18T23:17:34.891Z,13.32
2023-04-18T23:20:08.664Z,13.31
2023-04-18T23:22:41.226Z,13.37
2023-04-18T23:25:13.715Z,13.38
2023-04-18T23:27:46.220Z,13.39
2023-04-18T23:30:18.730Z,13.33
2023-04-18T23:32:50.824Z,13.40
2023-04-18T23:35:23.301Z,13.40
2023-04-18T23:37:57.156Z,13.43
2023-04-18T23:40:29.461Z,13.35
2023-04-18T23:43:02.189Z,13.30
2023-04-18T23:45:34.378Z,13.18
2023-04-18T23:48:06.838Z,13.06
2023-04-18T23:50:45.669Z,13.13
2023-04-18T23:53:18.318Z,13.15
2023-04-18T23:55:51.306Z,13.07
2023-04-18T23:58:23.717Z,12.83
